Time;durP1;ratioP1;P1;durP2;ratioP2;P2;SDS_P1;SDS_P2;PMS_P1;PMS_P2;Temp;Humidity;BMP_temperature;BMP_pressure;BME280_temperature;BME280_humidity;BME280_pressure;Samples;Min_cycle;Max_cycle;Signal;HPM_P1;HPM_P2
2022/08/26 00:00:20;;;;;;;;;3.00;3.00;;;;;;;;4984338;28;46520;-77
2022/08/26 00:02:45;;;;;;;;;3.00;3.00;;;;;;;;4987249;28;45436;-78
2022/08/26 00:05:10;;;;;;;;;2.00;2.00;;;;;;;;4983993;28;45605;-77
2022/08/26 00:07:35;;;;;;;;;2.67;2.67;;;;;;;;4989487;28;45270;-77
2022/08/26 00:10:00;;;;;;;;;4.33;4.33;;;;;;;;4984844;27;45535;-77
2022/08/26 00:12:26;;;;;;;;;4.00;4.00;;;;;;;;4990569;27;46356;-77
2022/08/26 00:14:51;;;;;;;;;3.00;3.00;;;;;;;;4990105;27;45476;-78
2022/08/26 00:17:17;;;;;;;;;5.00;4.67;;;;;;;;4991465;28;44746;-78
2022/08/26 00:19:42;;;;;;;;;2.50;1.50;;;;;;;;4990167;27;45538;-77
2022/08/26 00:22:08;;;;;;;;;4.67;3.00;;;;;;;;4987794;28;46073;-77
2022/08/26 00:24:33;;;;;;;;;4.00;3.00;;;;;;;;4988365;28;45448;-77
2022/08/26 00:26:58;;;;;;;;;5.33;4.67;;;;;;;;4984925;27;45287;-77
2022/08/26 00:29:24;;;;;;;;;5.00;3.33;;;;;;;;4989914;27;45327;-78
2022/08/26 00:31:49;;;;;;;;;4.00;4.00;;;;;;;;4994637;27;45789;-78
2022/08/26 00:34:15;;;;;;;;;3.67;3.67;;;;;;;;4994563;27;45264;-77
2022/08/26 00:36:41;;;;;;;;;5.00;4.00;;;;;;;;4995548;27;45444;-77
2022/08/26 00:39:06;;;;;;;;;4.33;4.00;;;;;;;;4992966;28;45449;-78
2022/08/26 00:41:33;;;;;;;;;4.67;4.67;;;;;;;;4980252;28;45909;-77
2022/08/26 00:43:58;;;;;;;;;7.33;5.00;;;;;;;;4979372;27;45249;-78
2022/08/26 00:46:32;;;;;;;;;4.00;4.00;;;;;;;;4984272;28;45387;-77
2022/08/26 00:49:02;;;;;;;;;6.00;5.00;;;;;;;;4988411;27;45474;-77
2022/08/26 00:51:27;;;;;;;;;6.00;5.00;;;;;;;;4978516;27;46057;-77
2022/08/26 00:53:56;;;;;;;;;5.00;5.00;;;;;;;;4991179;27;45347;-78
2022/08/26 00:56:25;;;;;;;;;7.00;6.00;;;;;;;;4982178;28;45263;-78
2022/08/26 00:58:52;;;;;;;;;8.00;5.00;;;;;;;;4988881;28;45473;-77
2022/08/26 01:01:17;;;;;;;;;5.67;5.67;;;;;;;;4985706;27;45364;-78
2022/08/26 01:03:43;;;;;;;;;4.00;4.00;;;;;;;;4977845;28;45311;-78
2022/08/26 01:06:09;;;;;;;;;5.00;5.00;;;;;;;;4986906;27;45398;-78
2022/08/26 01:08:34;;;;;;;;;6.67;6.67;;;;;;;;4980394;28;45884;-78
2022/08/26 01:11:00;;;;;;;;;6.00;6.00;;;;;;;;4983871;28;45378;-78
2022/08/26 01:13:26;;;;;;;;;7.00;5.00;;;;;;;;4991366;28;46107;-77
2022/08/26 01:15:53;;;;;;;;;5.00;5.00;;;;;;;;4983257;28;45417;-77
2022/08/26 01:18:18;;;;;;;;;8.00;7.00;;;;;;;;4990589;27;46287;-78
2022/08/26 01:21:05;;;;;;;;;8.00;6.33;;;;;;;;4984984;27;45361;-78
2022/08/26 01:23:32;;;;;;;;;7.00;6.00;;;;;;;;4992669;28;45908;-77
2022/08/26 01:26:00;;;;;;;;;10.00;7.67;;;;;;;;4977874;28;45371;-77
2022/08/26 01:28:27;;;;;;;;;11.33;8.67;;;;;;;;4992813;28;45357;-78
2022/08/26 01:30:53;;;;;;;;;9.67;7.67;;;;;;;;4979264;28;45293;-77
2022/08/26 01:33:22;;;;;;;;;6.67;6.67;;;;;;;;4981539;28;45424;-78
2022/08/26 01:35:48;;;;;;;;;11.00;11.00;;;;;;;;4994632;27;45422;-77
2022/08/26 01:38:13;;;;;;;;;9.67;9.67;;;;;;;;4977471;28;45375;-77
2022/08/26 01:40:42;;;;;;;;;12.00;9.00;;;;;;;;4984905;28;46157;-78
2022/08/26 01:43:09;;;;;;;;;10.67;9.33;;;;;;;;4979615;28;45397;-77
2022/08/26 01:45:35;;;;;;;;;10.00;8.00;;;;;;;;4986479;28;45399;-77
2022/08/26 01:48:03;;;;;;;;;9.33;8.33;;;;;;;;4981212;28;45285;-78
2022/08/26 01:50:30;;;;;;;;;11.67;9.67;;;;;;;;4977697;28;45551;-78
2022/08/26 01:52:56;;;;;;;;;13.67;11.00;;;;;;;;4990009;27;45652;-78
2022/08/26 01:55:23;;;;;;;;;13.33;12.00;;;;;;;;4981869;28;45329;-78
2022/08/26 01:57:50;;;;;;;;;12.00;10.67;;;;;;;;4985790;28;45311;-77
2022/08/26 02:00:16;;;;;;;;;12.67;12.00;;;;;;;;4983414;27;45933;-77
2022/08/26 02:02:42;;;;;;;;;15.33;12.00;;;;;;;;4989346;28;45320;-77
2022/08/26 02:05:09;;;;;;;;;12.00;12.00;;;;;;;;4990815;27;45301;-77
2022/08/26 02:07:36;;;;;;;;;13.00;11.67;;;;;;;;4982279;27;45650;-77
2022/08/26 02:10:03;;;;;;;;;13.00;11.33;;;;;;;;4991080;27;45270;-77
2022/08/26 02:12:29;;;;;;;;;15.00;13.33;;;;;;;;4992090;27;45319;-78
2022/08/26 02:14:56;;;;;;;;;11.33;11.00;;;;;;;;4990521;28;45319;-77
2022/08/26 02:17:25;;;;;;;;;13.00;13.00;;;;;;;;4991105;27;45454;-77
2022/08/26 02:19:50;;;;;;;;;16.00;14.33;;;;;;;;4986803;27;45271;-79
2022/08/26 02:22:17;;;;;;;;;13.00;13.00;;;;;;;;4988129;27;45305;-79
2022/08/26 02:24:51;;;;;;;;;12.67;11.00;;;;;;;;4991006;27;45643;-80
2022/08/26 02:27:18;;;;;;;;;16.00;14.00;;;;;;;;4981872;28;45854;-77
2022/08/26 02:29:44;;;;;;;;;13.33;13.33;;;;;;;;4983915;27;45873;-77
2022/08/26 02:32:11;;;;;;;;;12.67;11.33;;;;;;;;4981505;27;45473;-77
2022/08/26 02:34:36;;;;;;;;;14.00;11.67;;;;;;;;4986077;27;45399;-77
2022/08/26 02:37:03;;;;;;;;;16.33;13.67;;;;;;;;4983754;28;45585;-77
2022/08/26 02:39:29;;;;;;;;;10.67;9.00;;;;;;;;4989164;27;45796;-77
2022/08/26 02:41:54;;;;;;;;;18.00;15.00;;;;;;;;4989202;27;45253;-77
2022/08/26 02:44:20;;;;;;;;;19.00;13.00;;;;;;;;4991019;28;45607;-77
2022/08/26 02:46:45;;;;;;;;;13.33;13.00;;;;;;;;4980760;27;45630;-77
2022/08/26 02:49:10;;;;;;;;;16.33;15.00;;;;;;;;4989543;27;46326;-77
2022/08/26 02:51:36;;;;;;;;;16.67;15.33;;;;;;;;4980089;28;45362;-77
2022/08/26 02:54:02;;;;;;;;;15.00;15.00;;;;;;;;4990769;28;45322;-81
2022/08/26 02:56:28;;;;;;;;;18.00;14.00;;;;;;;;4985472;28;45212;-78
2022/08/26 02:58:53;;;;;;;;;17.00;13.67;;;;;;;;4992702;27;45222;-77
2022/08/26 03:01:19;;;;;;;;;20.00;16.00;;;;;;;;4988997;28;45449;-79
2022/08/26 03:03:44;;;;;;;;;18.33;15.00;;;;;;;;4988340;27;45459;-78
2022/08/26 03:06:10;;;;;;;;;12.67;12.67;;;;;;;;4984740;27;45291;-77
2022/08/26 03:08:35;;;;;;;;;14.67;13.67;;;;;;;;4980603;27;45690;-78
2022/08/26 03:11:00;;;;;;;;;17.00;15.00;;;;;;;;4985037;28;45498;-77
2022/08/26 03:13:25;;;;;;;;;15.00;15.00;;;;;;;;4981938;28;45281;-77
2022/08/26 03:15:50;;;;;;;;;16.33;16.33;;;;;;;;4986312;27;45381;-78
2022/08/26 03:18:16;;;;;;;;;20.00;16.67;;;;;;;;4984918;28;45416;-77
2022/08/26 03:20:41;;;;;;;;;19.67;16.33;;;;;;;;4987138;28;45790;-77
2022/08/26 03:23:06;;;;;;;;;17.00;15.33;;;;;;;;4987048;28;45277;-76
2022/08/26 03:25:31;;;;;;;;;19.33;16.33;;;;;;;;4981300;28;45459;-76
2022/08/26 03:27:56;;;;;;;;;21.67;18.67;;;;;;;;4989577;27;45359;-76
2022/08/26 03:30:40;;;;;;;;;18.00;16.33;;;;;;;;4989675;28;45959;-77
2022/08/26 03:33:07;;;;;;;;;16.67;15.33;;;;;;;;4995810;27;45573;-77
2022/08/26 03:35:32;;;;;;;;;21.00;18.67;;;;;;;;4986653;27;45430;-76
2022/08/26 03:37:58;;;;;;;;;17.33;16.67;;;;;;;;4993289;27;46179;-76
2022/08/26 03:40:23;;;;;;;;;17.00;17.00;;;;;;;;4986187;27;45469;-76
2022/08/26 03:42:49;;;;;;;;;16.67;16.00;;;;;;;;4995233;28;45347;-77
2022/08/26 03:45:15;;;;;;;;;20.67;18.67;;;;;;;;4984104;27;45340;-77
2022/08/26 03:47:40;;;;;;;;;21.00;19.33;;;;;;;;4978839;27;46561;-76
2022/08/26 03:50:07;;;;;;;;;23.00;20.00;;;;;;;;4979202;27;45363;-78
2022/08/26 03:52:33;;;;;;;;;22.00;18.67;;;;;;;;4981764;28;45460;-76
2022/08/26 03:54:58;;;;;;;;;22.00;18.33;;;;;;;;4977508;28;45342;-75
2022/08/26 03:57:23;;;;;;;;;21.67;20.33;;;;;;;;4991986;27;45258;-77
2022/08/26 03:59:48;;;;;;;;;20.67;18.33;;;;;;;;4982389;28;45300;-76
2022/08/26 04:02:14;;;;;;;;;20.33;18.67;;;;;;;;4986778;27;45131;-76
2022/08/26 04:04:39;;;;;;;;;23.67;20.33;;;;;;;;4988431;27;45464;-76
2022/08/26 04:07:04;;;;;;;;;19.67;17.33;;;;;;;;4992196;27;45464;-77
2022/08/26 04:09:29;;;;;;;;;25.33;23.33;;;;;;;;4988977;27;45347;-76
2022/08/26 04:11:57;;;;;;;;;20.00;16.67;;;;;;;;4983800;27;45215;-75
2022/08/26 04:14:23;;;;;;;;;20.67;20.67;;;;;;;;4986616;27;45447;-75
2022/08/26 04:16:48;;;;;;;;;17.00;17.00;;;;;;;;4993554;28;46591;-76
2022/08/26 04:19:14;;;;;;;;;23.00;18.00;;;;;;;;4991032;28;45587;-76
2022/08/26 04:21:40;;;;;;;;;21.33;19.33;;;;;;;;4985095;28;45854;-76
2022/08/26 04:24:06;;;;;;;;;21.33;20.00;;;;;;;;4991266;28;45411;-76
2022/08/26 04:26:38;;;;;;;;;24.00;23.00;;;;;;;;4985284;28;46108;-76
2022/08/26 04:29:05;;;;;;;;;26.33;24.67;;;;;;;;4992332;28;45295;-77
2022/08/26 04:31:32;;;;;;;;;22.00;20.00;;;;;;;;4993633;28;45410;-77
2022/08/26 04:33:57;;;;;;;;;25.00;21.67;;;;;;;;4995037;27;45522;-76
2022/08/26 04:36:22;;;;;;;;;24.33;19.67;;;;;;;;4993408;28;45219;-76
2022/08/26 04:38:49;;;;;;;;;24.33;20.67;;;;;;;;4993445;27;45625;-75
2022/08/26 04:41:15;;;;;;;;;19.00;19.00;;;;;;;;4986216;27;45332;-75
2022/08/26 04:43:40;;;;;;;;;24.67;21.67;;;;;;;;4991777;27;45525;-76
2022/08/26 04:46:06;;;;;;;;;25.33;24.00;;;;;;;;4990551;27;47136;-76
2022/08/26 04:48:32;;;;;;;;;21.67;19.33;;;;;;;;4985273;28;45246;-76
2022/08/26 04:50:58;;;;;;;;;22.33;20.00;;;;;;;;4990189;27;45468;-76
2022/08/26 04:53:24;;;;;;;;;22.00;22.00;;;;;;;;4995877;28;45480;-76
2022/08/26 04:55:49;;;;;;;;;21.00;19.33;;;;;;;;4987453;27;45571;-76
2022/08/26 04:58:18;;;;;;;;;24.33;23.00;;;;;;;;4992597;28;45410;-79
2022/08/26 05:00:45;;;;;;;;;23.67;20.67;;;;;;;;4991941;28;45473;-77
2022/08/26 05:03:10;;;;;;;;;23.67;21.67;;;;;;;;4993789;28;45389;-79
2022/08/26 05:05:40;;;;;;;;;21.33;21.33;;;;;;;;4977066;28;47632;-78
2022/08/26 05:08:05;;;;;;;;;21.33;20.00;;;;;;;;4993592;28;45442;-79
2022/08/26 05:10:33;;;;;;;;;21.67;19.67;;;;;;;;4989696;28;45528;-76
2022/08/26 05:12:59;;;;;;;;;21.67;21.33;;;;;;;;4993040;27;45549;-75
2022/08/26 05:15:24;;;;;;;;;21.33;20.33;;;;;;;;4989185;28;45407;-77
2022/08/26 05:17:50;;;;;;;;;24.33;20.00;;;;;;;;4992805;28;45489;-76
2022/08/26 05:20:15;;;;;;;;;22.33;22.00;;;;;;;;4984303;28;45434;-80
2022/08/26 05:22:41;;;;;;;;;26.33;22.00;;;;;;;;4989061;27;45480;-80
2022/08/26 05:25:06;;;;;;;;;20.00;19.33;;;;;;;;4993229;28;47085;-78
2022/08/26 05:27:32;;;;;;;;;26.00;20.67;;;;;;;;4992826;28;45483;-77
2022/08/26 05:29:57;;;;;;;;;23.67;22.00;;;;;;;;4987817;28;45939;-77
2022/08/26 05:32:22;;;;;;;;;23.00;20.67;;;;;;;;4990726;28;45433;-77
2022/08/26 05:34:51;;;;;;;;;21.67;20.33;;;;;;;;4994414;27;46939;-77
2022/08/26 05:37:16;;;;;;;;;26.67;26.00;;;;;;;;4997371;28;45319;-77
2022/08/26 05:39:41;;;;;;;;;22.67;21.00;;;;;;;;4989638;27;45429;-77
2022/08/26 05:42:07;;;;;;;;;27.00;23.67;;;;;;;;4995757;28;45555;-77
2022/08/26 05:44:32;;;;;;;;;22.67;22.33;;;;;;;;4993391;28;45208;-77
2022/08/26 05:46:57;;;;;;;;;24.33;24.33;;;;;;;;4990653;27;45275;-76
2022/08/26 05:49:22;;;;;;;;;26.00;24.00;;;;;;;;4980705;28;45436;-77
2022/08/26 05:51:48;;;;;;;;;27.00;22.67;;;;;;;;4982077;27;45418;-77
2022/08/26 05:54:13;;;;;;;;;24.33;24.00;;;;;;;;4989036;28;47173;-76
2022/08/26 05:56:39;;;;;;;;;31.33;24.67;;;;;;;;4985982;27;45261;-76
2022/08/26 05:59:04;;;;;;;;;23.00;23.00;;;;;;;;4998268;27;46051;-76
2022/08/26 06:01:30;;;;;;;;;24.67;21.00;;;;;;;;4989249;27;45720;-77
2022/08/26 06:03:57;;;;;;;;;24.67;21.67;;;;;;;;4994605;27;47032;-75
2022/08/26 06:06:23;;;;;;;;;23.00;22.33;;;;;;;;4984555;27;45276;-77
2022/08/26 06:08:49;;;;;;;;;23.33;20.67;;;;;;;;4984243;28;45528;-77
2022/08/26 06:11:16;;;;;;;;;25.33;21.00;;;;;;;;4993380;27;45310;-76
2022/08/26 06:13:41;;;;;;;;;25.00;22.33;;;;;;;;4994346;27;47503;-75
2022/08/26 06:16:11;;;;;;;;;25.33;18.33;;;;;;;;4987804;27;45330;-75
2022/08/26 06:18:38;;;;;;;;;25.33;23.67;;;;;;;;4992557;27;45508;-77
2022/08/26 06:21:12;;;;;;;;;25.67;20.67;;;;;;;;4979027;27;45529;-76
2022/08/26 06:26:21;;;;;;;;;24.00;21.00;;;;;;;;4982804;27;45296;-75
2022/08/26 06:28:47;;;;;;;;;21.33;19.33;;;;;;;;4995882;27;45361;-74
2022/08/26 06:31:12;;;;;;;;;23.00;21.33;;;;;;;;4989726;28;46569;-75
2022/08/26 06:33:37;;;;;;;;;24.67;23.67;;;;;;;;4979995;27;46690;-75
2022/08/26 06:36:03;;;;;;;;;21.00;21.00;;;;;;;;4985772;27;45541;-74
2022/08/26 06:38:28;;;;;;;;;21.33;18.67;;;;;;;;4988699;27;45366;-75
2022/08/26 06:40:53;;;;;;;;;21.00;16.33;;;;;;;;4985943;27;45297;-75
2022/08/26 06:43:20;;;;;;;;;21.00;17.33;;;;;;;;4991980;27;45353;-74
2022/08/26 06:45:46;;;;;;;;;23.67;18.67;;;;;;;;4981794;28;45420;-74
2022/08/26 06:48:13;;;;;;;;;21.67;18.33;;;;;;;;4978310;28;45284;-68
2022/08/26 06:50:38;;;;;;;;;23.00;18.00;;;;;;;;4980955;27;45356;-73
2022/08/26 06:53:03;;;;;;;;;19.67;18.67;;;;;;;;4982047;27;45263;-72
2022/08/26 06:55:29;;;;;;;;;22.00;20.00;;;;;;;;4984693;27;45251;-73
2022/08/26 06:57:54;;;;;;;;;22.00;18.67;;;;;;;;4985797;27;45195;-73
2022/08/26 07:00:20;;;;;;;;;19.67;17.00;;;;;;;;4985581;28;45556;-72
2022/08/26 07:02:45;;;;;;;;;20.67;15.33;;;;;;;;4996148;27;45383;-72
2022/08/26 07:05:10;;;;;;;;;20.33;17.00;;;;;;;;4991662;28;45592;-72
2022/08/26 07:07:36;;;;;;;;;21.50;19.00;;;;;;;;4996776;28;45315;-73
2022/08/26 07:10:02;;;;;;;;;18.67;17.00;;;;;;;;4990478;28;45460;-73
2022/08/26 07:12:27;;;;;;;;;22.00;22.00;;;;;;;;4994538;27;46305;-72
2022/08/26 07:14:52;;;;;;;;;20.67;19.67;;;;;;;;4993789;28;45235;-73
2022/08/26 07:17:18;;;;;;;;;23.33;20.00;;;;;;;;4995004;28;45375;-72
2022/08/26 07:19:44;;;;;;;;;21.33;19.33;;;;;;;;4987730;28;45313;-73
2022/08/26 07:22:09;;;;;;;;;19.67;16.00;;;;;;;;4981635;28;46687;-71
2022/08/26 07:24:36;;;;;;;;;18.33;17.33;;;;;;;;4988229;28;45624;-73
2022/08/26 07:27:02;;;;;;;;;20.00;18.67;;;;;;;;4994998;28;45640;-72
2022/08/26 07:29:28;;;;;;;;;17.67;17.67;;;;;;;;4994043;27;47080;-72
2022/08/26 07:31:53;;;;;;;;;18.67;18.67;;;;;;;;4990143;27;45881;-72
2022/08/26 07:34:19;;;;;;;;;18.33;18.33;;;;;;;;4995252;27;45258;-74
2022/08/26 07:36:44;;;;;;;;;19.67;19.33;;;;;;;;4992489;27;45386;-72
2022/08/26 07:39:10;;;;;;;;;23.00;17.33;;;;;;;;4992823;27;45211;-75
2022/08/26 07:41:35;;;;;;;;;19.00;19.00;;;;;;;;4976122;28;45418;-74
2022/08/26 07:44:00;;;;;;;;;25.67;21.00;;;;;;;;4989399;27;45414;-75
2022/08/26 07:46:25;;;;;;;;;20.00;18.33;;;;;;;;4985793;27;45378;-74
2022/08/26 07:48:51;;;;;;;;;23.00;19.33;;;;;;;;4989625;27;45373;-74
2022/08/26 07:51:17;;;;;;;;;23.33;19.33;;;;;;;;4979420;27;46465;-75
2022/08/26 07:53:43;;;;;;;;;17.00;16.67;;;;;;;;4980005;27;45317;-75
2022/08/26 07:56:08;;;;;;;;;21.00;16.67;;;;;;;;4984435;28;45398;-75
2022/08/26 07:58:34;;;;;;;;;14.33;13.33;;;;;;;;4982486;28;45587;-75
2022/08/26 08:00:59;;;;;;;;;15.67;15.67;;;;;;;;4983163;27;45386;-75
2022/08/26 08:03:25;;;;;;;;;16.33;15.33;;;;;;;;4989119;27;45284;-74
2022/08/26 08:05:51;;;;;;;;;15.67;14.00;;;;;;;;4986436;27;45398;-74
2022/08/26 08:08:16;;;;;;;;;15.67;13.67;;;;;;;;4991554;27;45212;-75
2022/08/26 08:10:43;;;;;;;;;11.00;11.00;;;;;;;;4988636;28;45204;-75
2022/08/26 08:13:09;;;;;;;;;21.33;17.33;;;;;;;;4983804;28;45220;-75
2022/08/26 08:15:36;;;;;;;;;15.00;12.33;;;;;;;;4987493;28;45682;-75
2022/08/26 08:18:01;;;;;;;;;12.00;12.00;;;;;;;;4985255;28;45516;-75
2022/08/26 08:20:27;;;;;;;;;18.67;17.67;;;;;;;;4983899;28;46297;-75
2022/08/26 08:22:52;;;;;;;;;16.00;13.67;;;;;;;;4986717;28;45407;-75
2022/08/26 08:25:18;;;;;;;;;9.00;8.67;;;;;;;;4985988;28;45406;-74
2022/08/26 08:27:44;;;;;;;;;10.00;9.00;;;;;;;;4987462;27;45972;-75
2022/08/26 08:30:10;;;;;;;;;16.67;13.67;;;;;;;;4988674;28;45507;-75
2022/08/26 08:32:37;;;;;;;;;13.67;12.33;;;;;;;;4990730;27;45194;-75
2022/08/26 08:35:02;;;;;;;;;14.67;11.67;;;;;;;;5002336;27;45416;-75
2022/08/26 08:37:28;;;;;;;;;11.00;11.00;;;;;;;;4987608;27;45776;-75
2022/08/26 08:39:53;;;;;;;;;11.00;11.00;;;;;;;;4988013;28;47781;-72
2022/08/26 08:42:30;;;;;;;;;12.67;12.67;;;;;;;;4990323;27;45418;-72
2022/08/26 08:44:57;;;;;;;;;12.75;11.00;;;;;;;;4977204;28;45552;-73
2022/08/26 08:47:32;;;;;;;;;12.00;11.00;;;;;;;;4989451;28;45744;-72
2022/08/26 08:50:01;;;;;;;;;8.50;7.00;;;;;;;;4989041;28;45647;-73
2022/08/26 08:52:28;;;;;;;;;9.75;8.25;;;;;;;;4985011;28;45214;-73
2022/08/26 08:54:54;;;;;;;;;7.75;7.75;;;;;;;;4981349;27;45457;-73
2022/08/26 08:57:30;;;;;;;;;10.00;9.75;;;;;;;;4985934;28;45343;-73
2022/08/26 09:00:07;;;;;;;;;10.00;8.50;;;;;;;;4982484;28;46042;-73
2022/08/26 09:02:34;;;;;;;;;10.25;9.50;;;;;;;;4984408;27;45403;-74
2022/08/26 09:04:59;;;;;;;;;7.75;7.75;;;;;;;;4989155;27;45295;-73
2022/08/26 09:07:35;;;;;;;;;8.25;8.25;;;;;;;;4986524;27;45348;-73
2022/08/26 09:10:03;;;;;;;;;6.00;6.00;;;;;;;;4988659;28;46270;-73
2022/08/26 09:12:30;;;;;;;;;9.75;8.00;;;;;;;;4994112;27;45421;-74
2022/08/26 09:15:01;;;;;;;;;9.75;9.75;;;;;;;;4989062;28;45283;-74
2022/08/26 09:17:45;;;;;;;;;10.00;10.00;;;;;;;;4983628;27;45228;-73
2022/08/26 09:20:28;;;;;;;;;6.75;6.75;;;;;;;;4987773;27;45352;-73
2022/08/26 09:22:55;;;;;;;;;9.75;9.75;;;;;;;;4989034;27;45459;-73
2022/08/26 09:25:20;;;;;;;;;9.50;9.00;;;;;;;;4993362;27;45230;-73
2022/08/26 09:27:47;;;;;;;;;8.25;7.50;;;;;;;;4996638;28;45364;-72
2022/08/26 09:30:33;;;;;;;;;10.00;9.00;;;;;;;;4987817;28;46147;-74
2022/08/26 09:32:58;;;;;;;;;10.25;9.00;;;;;;;;4981257;27;45232;-74
2022/08/26 09:35:26;;;;;;;;;8.25;7.75;;;;;;;;4985698;27;45341;-73
2022/08/26 09:37:52;;;;;;;;;7.75;7.25;;;;;;;;4987172;27;45448;-73
2022/08/26 09:40:22;;;;;;;;;9.00;7.25;;;;;;;;4987426;27;45433;-73
2022/08/26 09:43:07;;;;;;;;;14.00;10.75;;;;;;;;4995679;27;45448;-73
2022/08/26 09:45:34;;;;;;;;;9.00;8.00;;;;;;;;4988772;27;44860;-73
2022/08/26 09:48:00;;;;;;;;;8.00;7.00;;;;;;;;4985015;28;45452;-73
2022/08/26 09:50:37;;;;;;;;;7.50;7.50;;;;;;;;4984063;27;47062;-73
2022/08/26 09:53:02;;;;;;;;;13.00;10.00;;;;;;;;4979982;27;45296;-73
2022/08/26 09:55:27;;;;;;;;;8.00;8.00;;;;;;;;4984933;27;45322;-72
2022/08/26 09:57:53;;;;;;;;;7.75;7.25;;;;;;;;4987264;27;45383;-72
2022/08/26 10:00:24;;;;;;;;;10.75;7.75;;;;;;;;4989753;27;46142;-73
2022/08/26 10:02:49;;;;;;;;;9.00;8.00;;;;;;;;4984895;27;45601;-73
2022/08/26 10:05:16;;;;;;;;;5.75;5.75;;;;;;;;4986394;27;45424;-73
2022/08/26 10:07:44;;;;;;;;;9.50;9.25;;;;;;;;4986934;27;45327;-73
2022/08/26 10:10:15;;;;;;;;;11.00;7.75;;;;;;;;4986722;27;45370;-73
2022/08/26 10:12:51;;;;;;;;;9.00;7.80;;;;;;;;4998083;27;45687;-74
2022/08/26 10:15:17;;;;;;;;;7.25;7.25;;;;;;;;4988685;27;45545;-73
2022/08/26 10:17:48;;;;;;;;;8.25;8.25;;;;;;;;4995513;27;45590;-73
2022/08/26 10:20:15;;;;;;;;;7.25;7.25;;;;;;;;4988957;27;45417;-73
2022/08/26 10:22:54;;;;;;;;;12.00;10.25;;;;;;;;4989004;28;45368;-74
2022/08/26 10:25:21;;;;;;;;;8.00;7.75;;;;;;;;4986076;27;45528;-73
2022/08/26 10:27:57;;;;;;;;;11.00;9.25;;;;;;;;4992766;27;45239;-73
2022/08/26 10:30:26;;;;;;;;;8.00;8.00;;;;;;;;4990804;27;46948;-73
2022/08/26 10:32:57;;;;;;;;;10.60;7.80;;;;;;;;4984209;27;45377;-73
2022/08/26 10:35:22;;;;;;;;;11.00;8.00;;;;;;;;4988960;27;45312;-74
2022/08/26 10:37:55;;;;;;;;;7.50;7.50;;;;;;;;4994187;27;45298;-74
2022/08/26 10:40:25;;;;;;;;;6.20;6.20;;;;;;;;4988770;27;46805;-74
2022/08/26 10:43:05;;;;;;;;;6.20;5.60;;;;;;;;4988882;27;45724;-74
2022/08/26 10:45:32;;;;;;;;;6.75;5.25;;;;;;;;4983868;28;45343;-74
2022/08/26 10:48:03;;;;;;;;;6.25;6.25;;;;;;;;4985453;27;45496;-73
2022/08/26 10:50:34;;;;;;;;;7.40;6.00;;;;;;;;4988205;28;45494;-73
2022/08/26 10:53:03;;;;;;;;;6.40;6.00;;;;;;;;4986811;28;45320;-73
2022/08/26 10:55:39;;;;;;;;;6.50;6.25;;;;;;;;4988673;28;45355;-73
2022/08/26 10:58:20;;;;;;;;;7.00;7.00;;;;;;;;4978922;28;45355;-73
2022/08/26 11:03:42;;;;;;;;;7.20;6.00;;;;;;;;4982081;28;45342;-74
2022/08/26 11:06:17;;;;;;;;;7.20;7.20;;;;;;;;4983252;27;45386;-75
2022/08/26 11:08:49;;;;;;;;;6.75;6.75;;;;;;;;4991142;27;46259;-75
2022/08/26 11:11:33;;;;;;;;;6.40;6.40;;;;;;;;4985786;28;46187;-75
2022/08/26 11:14:00;;;;;;;;;6.40;4.80;;;;;;;;4994607;27;45910;-73
2022/08/26 11:16:39;;;;;;;;;14.80;14.40;;;;;;;;4990753;28;45486;-72
2022/08/26 11:19:05;;;;;;;;;6.25;5.50;;;;;;;;4981350;27;45459;-73
2022/08/26 11:21:47;;;;;;;;;5.20;5.20;;;;;;;;4986417;27;45240;-73
2022/08/26 11:24:30;;;;;;;;;7.40;5.60;;;;;;;;4994668;27;45519;-73
2022/08/26 11:26:56;;;;;;;;;3.60;3.60;;;;;;;;4992813;27;45347;-73
2022/08/26 11:29:56;;;;;;;;;3.25;3.25;;;;;;;;4979024;27;45479;-73
2022/08/26 11:32:23;;;;;;;;;5.20;5.20;;;;;;;;4975444;28;46185;-73
2022/08/26 11:34:50;;;;;;;;;4.20;3.60;;;;;;;;4977025;27;45296;-73
2022/08/26 11:37:16;;;;;;;;;5.20;4.60;;;;;;;;4978043;28;45544;-73
2022/08/26 11:39:52;;;;;;;;;3.80;3.20;;;;;;;;4988980;27;45538;-73
2022/08/26 11:42:33;;;;;;;;;4.60;3.80;;;;;;;;4988357;27;46168;-74
2022/08/26 11:45:00;;;;;;;;;4.80;4.80;;;;;;;;4988431;27;45269;-73
2022/08/26 11:47:27;;;;;;;;;4.60;4.00;;;;;;;;4982405;27;46518;-74
2022/08/26 11:50:05;;;;;;;;;3.80;3.80;;;;;;;;4980602;27;45268;-74
2022/08/26 11:52:31;;;;;;;;;5.60;4.00;;;;;;;;4994751;28;46408;-74
2022/08/26 11:55:02;;;;;;;;;5.75;5.75;;;;;;;;4990333;27;45276;-74
2022/08/26 11:57:27;;;;;;;;;5.80;5.80;;;;;;;;4995712;28;45341;-74
2022/08/26 11:59:53;;;;;;;;;4.25;4.25;;;;;;;;4989813;27;45596;-74
2022/08/26 12:02:19;;;;;;;;;6.50;5.00;;;;;;;;4990556;27;46014;-74
2022/08/26 12:04:47;;;;;;;;;6.25;4.25;;;;;;;;4990231;28;45417;-75
2022/08/26 12:07:12;;;;;;;;;4.80;4.80;;;;;;;;4992943;27;45446;-74
2022/08/26 12:09:49;;;;;;;;;3.50;3.50;;;;;;;;4983763;27;45726;-75
2022/08/26 12:12:16;;;;;;;;;5.00;5.00;;;;;;;;4991133;28;46431;-74
2022/08/26 12:14:42;;;;;;;;;7.80;3.60;;;;;;;;4989045;27;45536;-74
2022/08/26 12:17:10;;;;;;;;;3.40;3.40;;;;;;;;4988399;27;45397;-74
2022/08/26 12:19:35;;;;;;;;;2.40;2.40;;;;;;;;4991576;27;45675;-74
2022/08/26 12:22:02;;;;;;;;;5.25;4.00;;;;;;;;4986855;28;46028;-74
2022/08/26 12:24:28;;;;;;;;;4.80;3.80;;;;;;;;4991651;28;45457;-74
2022/08/26 12:27:07;;;;;;;;;3.50;3.50;;;;;;;;4993857;28;45631;-74
2022/08/26 12:29:32;;;;;;;;;3.00;3.00;;;;;;;;4991552;28;45556;-73
2022/08/26 12:32:09;;;;;;;;;5.00;4.00;;;;;;;;4993163;27;46123;-75
2022/08/26 12:34:35;;;;;;;;;2.00;2.00;;;;;;;;4993326;27;45329;-74
2022/08/26 12:37:01;;;;;;;;;4.00;4.00;;;;;;;;4977426;28;45315;-74
2022/08/26 12:39:26;;;;;;;;;4.00;2.80;;;;;;;;4979708;28;45465;-74
2022/08/26 12:41:56;;;;;;;;;5.00;3.50;;;;;;;;4983026;27;45421;-74
2022/08/26 12:44:40;;;;;;;;;4.80;4.80;;;;;;;;4987782;28;45442;-74
2022/08/26 12:47:21;;;;;;;;;3.80;3.80;;;;;;;;4985377;27;45224;-74
2022/08/26 12:49:48;;;;;;;;;4.40;3.60;;;;;;;;4991114;27;45408;-73
2022/08/26 12:52:28;;;;;;;;;4.20;3.60;;;;;;;;4993421;28;47192;-73
2022/08/26 12:54:58;;;;;;;;;3.00;3.00;;;;;;;;4991018;27;46905;-73
2022/08/26 12:57:25;;;;;;;;;3.20;3.20;;;;;;;;4993481;28;45205;-74
2022/08/26 12:59:50;;;;;;;;;3.20;3.20;;;;;;;;4989461;28;45338;-74
2022/08/26 13:02:34;;;;;;;;;3.75;3.00;;;;;;;;4991803;28;46271;-74
2022/08/26 13:05:00;;;;;;;;;2.20;2.20;;;;;;;;4987809;27;45306;-74
2022/08/26 13:07:25;;;;;;;;;4.00;3.00;;;;;;;;4994382;28;45292;-74
2022/08/26 13:09:52;;;;;;;;;3.00;3.00;;;;;;;;4990419;27;45528;-74
2022/08/26 13:12:28;;;;;;;;;3.60;2.40;;;;;;;;4993264;28;46202;-74
2022/08/26 13:14:53;;;;;;;;;4.00;2.80;;;;;;;;4991991;28;45524;-74
2022/08/26 13:17:19;;;;;;;;;3.75;3.00;;;;;;;;4990015;27;45422;-74
2022/08/26 13:19:45;;;;;;;;;2.50;2.50;;;;;;;;4983370;27;45679;-75
2022/08/26 13:22:11;;;;;;;;;4.00;3.00;;;;;;;;4985518;27;46291;-75
2022/08/26 13:24:39;;;;;;;;;3.00;3.00;;;;;;;;4991185;28;45413;-75
2022/08/26 13:27:06;;;;;;;;;3.60;3.60;;;;;;;;4992710;28;45462;-74
2022/08/26 13:29:31;;;;;;;;;3.00;3.00;;;;;;;;4992468;27;45510;-74
2022/08/26 13:31:57;;;;;;;;;2.00;2.00;;;;;;;;4985906;28;46105;-75
2022/08/26 13:34:22;;;;;;;;;3.00;3.00;;;;;;;;4988966;27;45478;-74
2022/08/26 13:36:48;;;;;;;;;3.25;3.00;;;;;;;;4976308;28;45581;-73
2022/08/26 13:39:14;;;;;;;;;3.00;3.00;;;;;;;;4988192;27;45489;-75
2022/08/26 13:41:39;;;;;;;;;2.00;2.00;;;;;;;;4977092;28;46027;-75
2022/08/26 13:44:05;;;;;;;;;3.00;3.00;;;;;;;;4988369;27;45340;-75
2022/08/26 13:46:30;;;;;;;;;2.75;2.75;;;;;;;;4986754;28;45432;-75
2022/08/26 13:48:56;;;;;;;;;3.00;3.00;;;;;;;;4993235;28;45488;-75
2022/08/26 13:51:22;;;;;;;;;5.00;3.00;;;;;;;;4988230;27;45461;-75
2022/08/26 13:53:47;;;;;;;;;4.00;2.75;;;;;;;;4992452;27;45720;-75
2022/08/26 13:56:13;;;;;;;;;3.50;3.50;;;;;;;;4988270;28;45287;-74
2022/08/26 13:58:38;;;;;;;;;3.50;3.50;;;;;;;;4997909;27;45326;-74
2022/08/26 14:01:03;;;;;;;;;3.75;3.75;;;;;;;;4991269;27;45545;-74
2022/08/26 14:03:28;;;;;;;;;3.75;3.00;;;;;;;;4997174;27;45571;-74
2022/08/26 14:05:54;;;;;;;;;3.00;2.25;;;;;;;;4992269;27;45310;-74
2022/08/26 14:08:20;;;;;;;;;3.00;3.00;;;;;;;;4996894;27;45459;-74
2022/08/26 14:10:46;;;;;;;;;4.00;2.75;;;;;;;;4985338;27;47852;-74
2022/08/26 14:13:11;;;;;;;;;4.80;4.80;;;;;;;;4995702;27;45704;-74
2022/08/26 14:15:37;;;;;;;;;3.00;3.00;;;;;;;;4986946;27;45508;-74
2022/08/26 14:18:03;;;;;;;;;2.00;2.00;;;;;;;;4990779;27;45370;-74
2022/08/26 14:20:29;;;;;;;;;4.80;2.60;;;;;;;;4991090;27;46423;-73
2022/08/26 14:22:54;;;;;;;;;2.40;2.40;;;;;;;;4987591;28;45674;-73
2022/08/26 14:25:20;;;;;;;;;3.75;3.75;;;;;;;;4990215;27;45838;-73
2022/08/26 14:27:46;;;;;;;;;3.20;3.20;;;;;;;;4995890;27;45404;-73
2022/08/26 14:30:11;;;;;;;;;5.50;4.00;;;;;;;;4990221;27;46288;-74
2022/08/26 14:32:39;;;;;;;;;3.00;3.00;;;;;;;;4981419;27;45323;-74
2022/08/26 14:35:04;;;;;;;;;2.60;2.20;;;;;;;;4989793;27;45407;-74